sensor_id;sensor_type;location;lat;lon;timestamp;temperature;humidity
8408;DHT22;4241;48.452;9.216;2023-03-14T00:00:06;10.00;99.90
8408;DHT22;4241;48.452;9.216;2023-03-14T00:02:33;9.60;99.90
8408;DHT22;4241;48.452;9.216;2023-03-14T00:05:00;9.70;99.90
8408;DHT22;4241;48.452;9.216;2023-03-14T00:07:28;9.90;99.90
8408;DHT22;4241;48.452;9.216;2023-03-14T00:12:27;9.90;99.90
8408;DHT22;4241;48.452;9.216;2023-03-14T00:17:21;9.80;99.90
8408;DHT22;4241;48.452;9.216;2023-03-14T00:19:48;9.60;99.90
8408;DHT22;4241;48.452;9.216;2023-03-14T00:22:17;9.70;99.90
8408;DHT22;4241;48.452;9.216;2023-03-14T00:29:40;9.70;99.90
8408;DHT22;4241;48.452;9.216;2023-03-14T00:32:08;9.60;99.90
8408;DHT22;4241;48.452;9.216;2023-03-14T00:34:35;9.40;99.90
8408;DHT22;4241;48.452;9.216;2023-03-14T00:37:02;9.60;99.90
8408;DHT22;4241;48.452;9.216;2023-03-14T00:41:56;9.50;99.90
8408;DHT22;4241;48.452;9.216;2023-03-14T00:46:51;9.70;99.90
8408;DHT22;4241;48.452;9.216;2023-03-14T00:49:18;9.60;99.90
8408;DHT22;4241;48.452;9.216;2023-03-14T00:54:12;9.60;99.90
8408;DHT22;4241;48.452;9.216;2023-03-14T00:56:39;9.70;99.90
8408;DHT22;4241;48.452;9.216;2023-03-14T01:04:01;9.80;99.90
8408;DHT22;4241;48.452;9.216;2023-03-14T01:06:29;9.80;99.90
8408;DHT22;4241;48.452;9.216;2023-03-14T01:08:57;9.90;99.90
8408;DHT22;4241;48.452;9.216;2023-03-14T01:11:25;9.80;99.90
8408;DHT22;4241;48.452;9.216;2023-03-14T01:13:53;9.70;99.90
8408;DHT22;4241;48.452;9.216;2023-03-14T01:16:20;9.80;99.90
8408;DHT22;4241;48.452;9.216;2023-03-14T01:18:48;9.80;99.90
8408;DHT22;4241;48.452;9.216;2023-03-14T01:21:18;9.70;99.90
8408;DHT22;4241;48.452;9.216;2023-03-14T01:23:46;9.70;99.90
8408;DHT22;4241;48.452;9.216;2023-03-14T01:26:15;9.80;99.90
8408;DHT22;4241;48.452;9.216;2023-03-14T01:31:11;9.80;99.90
8408;DHT22;4241;48.452;9.216;2023-03-14T01:33:38;10.00;99.90
8408;DHT22;4241;48.452;9.216;2023-03-14T01:36:06;9.80;99.90
8408;DHT22;4241;48.452;9.216;2023-03-14T01:38:36;9.90;99.90
8408;DHT22;4241;48.452;9.216;2023-03-14T01:41:04;9.90;99.90
8408;DHT22;4241;48.452;9.216;2023-03-14T01:43:31;9.80;99.90
8408;DHT22;4241;48.452;9.216;2023-03-14T01:46:20;10.00;99.90
8408;DHT22;4241;48.452;9.216;2023-03-14T01:48:53;9.90;99.90
8408;DHT22;4241;48.452;9.216;2023-03-14T01:51:25;9.90;99.90
8408;DHT22;4241;48.452;9.216;2023-03-14T01:54:00;9.90;99.90
8408;DHT22;4241;48.452;9.216;2023-03-14T01:58:56;9.90;99.90
8408;DHT22;4241;48.452;9.216;2023-03-14T02:01:24;9.90;99.90
8408;DHT22;4241;48.452;9.216;2023-03-14T02:03:54;10.00;99.90
8408;DHT22;4241;48.452;9.216;2023-03-14T02:06:24;9.90;99.90
8408;DHT22;4241;48.452;9.216;2023-03-14T02:08:54;10.00;99.90
8408;DHT22;4241;48.452;9.216;2023-03-14T02:11:21;9.90;99.90
8408;DHT22;4241;48.452;9.216;2023-03-14T02:13:51;9.90;99.90
8408;DHT22;4241;48.452;9.216;2023-03-14T02:16:17;10.10;99.90
8408;DHT22;4241;48.452;9.216;2023-03-14T02:21:16;10.00;99.90
8408;DHT22;4241;48.452;9.216;2023-03-14T02:23:51;10.00;99.90
8408;DHT22;4241;48.452;9.216;2023-03-14T02:26:23;9.50;99.90
8408;DHT22;4241;48.452;9.216;2023-03-14T02:28:54;10.00;99.90
8408;DHT22;4241;48.452;9.216;2023-03-14T02:31:22;9.80;99.90
8408;DHT22;4241;48.452;9.216;2023-03-14T02:33:49;10.00;99.90
8408;DHT22;4241;48.452;9.216;2023-03-14T02:36:17;10.00;99.90
8408;DHT22;4241;48.452;9.216;2023-03-14T02:38:49;9.90;99.90
8408;DHT22;4241;48.452;9.216;2023-03-14T02:41:18;9.90;99.90
8408;DHT22;4241;48.452;9.216;2023-03-14T02:46:14;9.80;99.90
8408;DHT22;4241;48.452;9.216;2023-03-14T02:48:46;9.90;99.90
8408;DHT22;4241;48.452;9.216;2023-03-14T02:51:14;9.80;99.90
8408;DHT22;4241;48.452;9.216;2023-03-14T02:53:41;9.80;99.90
8408;DHT22;4241;48.452;9.216;2023-03-14T02:56:08;9.70;99.90
8408;DHT22;4241;48.452;9.216;2023-03-14T02:58:36;9.70;99.90
8408;DHT22;4241;48.452;9.216;2023-03-14T03:01:03;9.80;99.90
8408;DHT22;4241;48.452;9.216;2023-03-14T03:03:32;9.80;99.90
8408;DHT22;4241;48.452;9.216;2023-03-14T03:08:27;9.80;99.90
8408;DHT22;4241;48.452;9.216;2023-03-14T03:10:54;9.80;99.90
8408;DHT22;4241;48.452;9.216;2023-03-14T03:13:21;9.90;99.90
8408;DHT22;4241;48.452;9.216;2023-03-14T03:15:48;9.80;99.90
8408;DHT22;4241;48.452;9.216;2023-03-14T03:18:15;9.80;99.90
8408;DHT22;4241;48.452;9.216;2023-03-14T03:20:43;9.80;99.90
8408;DHT22;4241;48.452;9.216;2023-03-14T03:23:09;9.80;99.90
8408;DHT22;4241;48.452;9.216;2023-03-14T03:28:04;9.80;99.90
8408;DHT22;4241;48.452;9.216;2023-03-14T03:30:36;9.70;99.90
8408;DHT22;4241;48.452;9.216;2023-03-14T03:37:59;9.60;99.90
8408;DHT22;4241;48.452;9.216;2023-03-14T03:40:26;9.50;99.90
8408;DHT22;4241;48.452;9.216;2023-03-14T03:47:47;9.40;99.90
8408;DHT22;4241;48.452;9.216;2023-03-14T03:50:13;9.50;99.90
8408;DHT22;4241;48.452;9.216;2023-03-14T03:52:40;9.40;99.90
8408;DHT22;4241;48.452;9.216;2023-03-14T03:55:09;9.50;99.90
8408;DHT22;4241;48.452;9.216;2023-03-14T04:00:04;9.40;99.90
8408;DHT22;4241;48.452;9.216;2023-03-14T04:02:31;9.30;99.90
8408;DHT22;4241;48.452;9.216;2023-03-14T04:04:58;9.30;99.90
8408;DHT22;4241;48.452;9.216;2023-03-14T04:07:25;9.30;99.90
8408;DHT22;4241;48.452;9.216;2023-03-14T04:09:52;9.30;99.90
8408;DHT22;4241;48.452;9.216;2023-03-14T04:12:20;9.20;99.90
8408;DHT22;4241;48.452;9.216;2023-03-14T04:14:47;9.40;99.90
8408;DHT22;4241;48.452;9.216;2023-03-14T04:17:13;9.20;99.90
8408;DHT22;4241;48.452;9.216;2023-03-14T04:22:07;9.30;99.90
8408;DHT22;4241;48.452;9.216;2023-03-14T04:29:30;9.50;99.90
8408;DHT22;4241;48.452;9.216;2023-03-14T04:36:51;9.10;99.90
8408;DHT22;4241;48.452;9.216;2023-03-14T04:39:18;9.20;99.90
8408;DHT22;4241;48.452;9.216;2023-03-14T04:41:45;9.30;99.90
8408;DHT22;4241;48.452;9.216;2023-03-14T04:46:40;9.20;99.90
8408;DHT22;4241;48.452;9.216;2023-03-14T04:49:07;9.30;99.90
8408;DHT22;4241;48.452;9.216;2023-03-14T04:54:01;9.20;99.90
8408;DHT22;4241;48.452;9.216;2023-03-14T04:58:55;9.20;99.90
8408;DHT22;4241;48.452;9.216;2023-03-14T05:03:50;9.30;99.90
8408;DHT22;4241;48.452;9.216;2023-03-14T05:11:11;9.20;99.90
8408;DHT22;4241;48.452;9.216;2023-03-14T05:16:07;9.20;99.90
8408;DHT22;4241;48.452;9.216;2023-03-14T05:21:04;9.50;99.90
8408;DHT22;4241;48.452;9.216;2023-03-14T05:25:58;9.50;99.90
8408;DHT22;4241;48.452;9.216;2023-03-14T05:30:52;9.50;99.90
8408;DHT22;4241;48.452;9.216;2023-03-14T05:35:46;9.30;99.90
8408;DHT22;4241;48.452;9.216;2023-03-14T05:38:14;9.40;99.90
8408;DHT22;4241;48.452;9.216;2023-03-14T05:43:09;9.20;99.90
8408;DHT22;4241;48.452;9.216;2023-03-14T05:45:36;9.40;99.90
8408;DHT22;4241;48.452;9.216;2023-03-14T05:48:03;9.20;99.90
8408;DHT22;4241;48.452;9.216;2023-03-14T05:50:30;9.40;99.90
8408;DHT22;4241;48.452;9.216;2023-03-14T05:52:56;9.20;99.90
8408;DHT22;4241;48.452;9.216;2023-03-14T05:55:25;9.30;99.90
8408;DHT22;4241;48.452;9.216;2023-03-14T05:57:53;9.30;99.90
8408;DHT22;4241;48.452;9.216;2023-03-14T06:00:20;9.30;99.90
8408;DHT22;4241;48.452;9.216;2023-03-14T06:02:47;9.40;99.90
8408;DHT22;4241;48.452;9.216;2023-03-14T06:07:41;9.30;99.90
8408;DHT22;4241;48.452;9.216;2023-03-14T06:10:09;9.30;99.90
8408;DHT22;4241;48.452;9.216;2023-03-14T06:12:37;9.20;99.90
8408;DHT22;4241;48.452;9.216;2023-03-14T06:15:05;9.20;99.90
8408;DHT22;4241;48.452;9.216;2023-03-14T06:17:32;9.30;99.90
8408;DHT22;4241;48.452;9.216;2023-03-14T06:19:59;9.40;99.90
8408;DHT22;4241;48.452;9.216;2023-03-14T06:22:25;9.30;99.90
8408;DHT22;4241;48.452;9.216;2023-03-14T06:29:48;9.40;99.90
8408;DHT22;4241;48.452;9.216;2023-03-14T06:32:15;9.40;99.90
8408;DHT22;4241;48.452;9.216;2023-03-14T06:34:41;9.40;99.90
8408;DHT22;4241;48.452;9.216;2023-03-14T06:37:08;9.50;99.90
8408;DHT22;4241;48.452;9.216;2023-03-14T06:39:35;9.60;99.90
8408;DHT22;4241;48.452;9.216;2023-03-14T06:42:04;9.60;99.90
8408;DHT22;4241;48.452;9.216;2023-03-14T06:44:31;9.60;99.90
8408;DHT22;4241;48.452;9.216;2023-03-14T06:46:59;9.70;99.90
8408;DHT22;4241;48.452;9.216;2023-03-14T06:51:53;9.80;99.90
8408;DHT22;4241;48.452;9.216;2023-03-14T06:59:14;9.80;99.90
8408;DHT22;4241;48.452;9.216;2023-03-14T07:01:41;9.80;99.90
8408;DHT22;4241;48.452;9.216;2023-03-14T07:04:10;9.80;99.90
8408;DHT22;4241;48.452;9.216;2023-03-14T07:06:37;9.80;99.90
8408;DHT22;4241;48.452;9.216;2023-03-14T07:09:05;9.70;99.90
8408;DHT22;4241;48.452;9.216;2023-03-14T07:11:32;9.90;99.90
8408;DHT22;4241;48.452;9.216;2023-03-14T07:18:54;9.70;99.90
8408;DHT22;4241;48.452;9.216;2023-03-14T07:21:22;9.80;99.90
8408;DHT22;4241;48.452;9.216;2023-03-14T07:26:16;9.90;99.90
8408;DHT22;4241;48.452;9.216;2023-03-14T07:28:43;10.00;99.90
8408;DHT22;4241;48.452;9.216;2023-03-14T07:31:10;10.00;99.90
8408;DHT22;4241;48.452;9.216;2023-03-14T07:36:04;10.10;99.90
8408;DHT22;4241;48.452;9.216;2023-03-14T07:38:33;10.00;99.90
8408;DHT22;4241;48.452;9.216;2023-03-14T07:41:00;10.20;99.90
8408;DHT22;4241;48.452;9.216;2023-03-14T07:43:27;10.10;99.90
8408;DHT22;4241;48.452;9.216;2023-03-14T07:45:54;10.30;99.90
8408;DHT22;4241;48.452;9.216;2023-03-14T07:50:50;10.30;99.90
8408;DHT22;4241;48.452;9.216;2023-03-14T07:55:46;10.40;99.90
8408;DHT22;4241;48.452;9.216;2023-03-14T07:58:13;10.50;99.90
8408;DHT22;4241;48.452;9.216;2023-03-14T08:00:40;10.40;99.90
8408;DHT22;4241;48.452;9.216;2023-03-14T08:03:06;10.60;99.90
8408;DHT22;4241;48.452;9.216;2023-03-14T08:05:34;10.70;99.90
8408;DHT22;4241;48.452;9.216;2023-03-14T08:08:02;10.70;99.90
8408;DHT22;4241;48.452;9.216;2023-03-14T08:10:29;10.80;99.90
8408;DHT22;4241;48.452;9.216;2023-03-14T08:12:58;10.90;99.90
8408;DHT22;4241;48.452;9.216;2023-03-14T08:15:26;11.10;99.90
8408;DHT22;4241;48.452;9.216;2023-03-14T08:17:53;11.10;99.90
8408;DHT22;4241;48.452;9.216;2023-03-14T08:20:21;11.10;99.90
8408;DHT22;4241;48.452;9.216;2023-03-14T08:22:48;11.20;99.90
8408;DHT22;4241;48.452;9.216;2023-03-14T08:25:15;11.10;99.90
8408;DHT22;4241;48.452;9.216;2023-03-14T08:27:43;11.10;99.90
8408;DHT22;4241;48.452;9.216;2023-03-14T08:30:14;11.40;99.90
8408;DHT22;4241;48.452;9.216;2023-03-14T08:35:09;11.20;99.90
8408;DHT22;4241;48.452;9.216;2023-03-14T08:37:37;11.20;99.90
8408;DHT22;4241;48.452;9.216;2023-03-14T08:40:05;11.20;99.90
8408;DHT22;4241;48.452;9.216;2023-03-14T08:42:32;11.30;99.90
8408;DHT22;4241;48.452;9.216;2023-03-14T08:47:28;11.20;99.90
8408;DHT22;4241;48.452;9.216;2023-03-14T08:52:23;11.50;99.90
8408;DHT22;4241;48.452;9.216;2023-03-14T08:57:16;12.00;99.90
8408;DHT22;4241;48.452;9.216;2023-03-14T09:04:40;12.10;99.90
8408;DHT22;4241;48.452;9.216;2023-03-14T09:07:07;12.30;99.90
8408;DHT22;4241;48.452;9.216;2023-03-14T09:09:33;12.20;99.90
8408;DHT22;4241;48.452;9.216;2023-03-14T09:14:27;12.50;99.90
8408;DHT22;4241;48.452;9.216;2023-03-14T09:16:54;12.30;99.90
8408;DHT22;4241;48.452;9.216;2023-03-14T09:21:49;12.20;99.90
8408;DHT22;4241;48.452;9.216;2023-03-14T09:29:10;11.70;99.90
8408;DHT22;4241;48.452;9.216;2023-03-14T09:31:37;11.60;99.90
8408;DHT22;4241;48.452;9.216;2023-03-14T09:34:04;11.50;99.90
8408;DHT22;4241;48.452;9.216;2023-03-14T09:36:31;11.40;99.90
8408;DHT22;4241;48.452;9.216;2023-03-14T09:38:59;11.30;99.90
8408;DHT22;4241;48.452;9.216;2023-03-14T09:41:28;11.20;99.90
8408;DHT22;4241;48.452;9.216;2023-03-14T09:44:02;11.20;99.90
8408;DHT22;4241;48.452;9.216;2023-03-14T09:46:32;11.30;99.90
8408;DHT22;4241;48.452;9.216;2023-03-14T09:49:01;11.30;99.90
8408;DHT22;4241;48.452;9.216;2023-03-14T09:53:55;11.10;99.90
8408;DHT22;4241;48.452;9.216;2023-03-14T09:56:26;11.10;99.90
8408;DHT22;4241;48.452;9.216;2023-03-14T09:58:56;11.20;99.90
8408;DHT22;4241;48.452;9.216;2023-03-14T10:01:26;11.30;99.90
8408;DHT22;4241;48.452;9.216;2023-03-14T10:03:55;11.30;99.90
8408;DHT22;4241;48.452;9.216;2023-03-14T10:06:25;11.30;99.90
8408;DHT22;4241;48.452;9.216;2023-03-14T10:08:53;11.30;99.90
8408;DHT22;4241;48.452;9.216;2023-03-14T10:14:06;11.40;99.90
8408;DHT22;4241;48.452;9.216;2023-03-14T10:16:35;11.60;99.90
8408;DHT22;4241;48.452;9.216;2023-03-14T10:19:04;11.60;99.90
8408;DHT22;4241;48.452;9.216;2023-03-14T10:21:36;11.60;99.90
8408;DHT22;4241;48.452;9.216;2023-03-14T10:24:20;11.70;99.90
8408;DHT22;4241;48.452;9.216;2023-03-14T10:26:49;11.70;99.90
8408;DHT22;4241;48.452;9.216;2023-03-14T10:29:18;11.80;99.90
8408;DHT22;4241;48.452;9.216;2023-03-14T10:31:52;11.70;99.90
8408;DHT22;4241;48.452;9.216;2023-03-14T10:34:24;11.80;99.90
8408;DHT22;4241;48.452;9.216;2023-03-14T10:36:56;11.90;99.90
8408;DHT22;4241;48.452;9.216;2023-03-14T10:39:41;11.70;99.90
8408;DHT22;4241;48.452;9.216;2023-03-14T10:42:15;11.70;99.90
8408;DHT22;4241;48.452;9.216;2023-03-14T10:44:46;11.60;99.90
8408;DHT22;4241;48.452;9.216;2023-03-14T10:47:17;11.50;99.90
8408;DHT22;4241;48.452;9.216;2023-03-14T10:49:46;11.50;99.90
8408;DHT22;4241;48.452;9.216;2023-03-14T10:52:17;11.30;99.90
8408;DHT22;4241;48.452;9.216;2023-03-14T10:57:15;11.30;99.90
8408;DHT22;4241;48.452;9.216;2023-03-14T10:59:44;11.20;99.90
8408;DHT22;4241;48.452;9.216;2023-03-14T11:02:33;11.20;99.90
8408;DHT22;4241;48.452;9.216;2023-03-14T11:05:11;11.20;99.90
8408;DHT22;4241;48.452;9.216;2023-03-14T11:07:43;11.10;99.90
8408;DHT22;4241;48.452;9.216;2023-03-14T11:10:17;10.20;99.90
8408;DHT22;4241;48.452;9.216;2023-03-14T11:12:52;10.70;99.90
8408;DHT22;4241;48.452;9.216;2023-03-14T11:15:27;10.60;99.90
8408;DHT22;4241;48.452;9.216;2023-03-14T11:18:21;10.30;99.90
8408;DHT22;4241;48.452;9.216;2023-03-14T11:20:52;10.20;99.90
8408;DHT22;4241;48.452;9.216;2023-03-14T11:23:23;10.10;99.90
8408;DHT22;4241;48.452;9.216;2023-03-14T11:25:57;10.00;99.90
8408;DHT22;4241;48.452;9.216;2023-03-14T11:28:33;10.20;99.90
8408;DHT22;4241;48.452;9.216;2023-03-14T11:31:11;10.00;99.90
8408;DHT22;4241;48.452;9.216;2023-03-14T11:33:47;10.00;99.90
8408;DHT22;4241;48.452;9.216;2023-03-14T11:36:18;10.00;99.90
8408;DHT22;4241;48.452;9.216;2023-03-14T11:38:48;10.00;99.90
8408;DHT22;4241;48.452;9.216;2023-03-14T11:41:18;10.00;99.90
8408;DHT22;4241;48.452;9.216;2023-03-14T11:43:47;9.90;99.90
8408;DHT22;4241;48.452;9.216;2023-03-14T11:46:18;9.80;99.90
8408;DHT22;4241;48.452;9.216;2023-03-14T11:48:57;9.90;99.90
8408;DHT22;4241;48.452;9.216;2023-03-14T11:51:29;9.70;99.90
8408;DHT22;4241;48.452;9.216;2023-03-14T11:54:04;9.70;99.90
8408;DHT22;4241;48.452;9.216;2023-03-14T11:56:39;9.80;99.90
8408;DHT22;4241;48.452;9.216;2023-03-14T11:59:15;9.90;99.90
8408;DHT22;4241;48.452;9.216;2023-03-14T12:01:55;10.20;99.90
8408;DHT22;4241;48.452;9.216;2023-03-14T12:04:38;10.20;99.90
8408;DHT22;4241;48.452;9.216;2023-03-14T12:07:12;10.10;99.90
8408;DHT22;4241;48.452;9.216;2023-03-14T12:09:41;10.10;99.90
8408;DHT22;4241;48.452;9.216;2023-03-14T12:12:12;10.00;99.90
8408;DHT22;4241;48.452;9.216;2023-03-14T12:14:45;9.90;99.90
8408;DHT22;4241;48.452;9.216;2023-03-14T12:17:21;9.90;99.90
8408;DHT22;4241;48.452;9.216;2023-03-14T12:19:51;9.80;99.90
8408;DHT22;4241;48.452;9.216;2023-03-14T12:22:28;9.70;99.90
8408;DHT22;4241;48.452;9.216;2023-03-14T12:25:00;9.40;99.90
8408;DHT22;4241;48.452;9.216;2023-03-14T12:30:32;9.30;99.90
8408;DHT22;4241;48.452;9.216;2023-03-14T12:33:26;9.10;99.90
8408;DHT22;4241;48.452;9.216;2023-03-14T12:35:58;8.90;99.90
8408;DHT22;4241;48.452;9.216;2023-03-14T12:38:31;8.50;99.90
8408;DHT22;4241;48.452;9.216;2023-03-14T12:41:08;8.50;99.90
8408;DHT22;4241;48.452;9.216;2023-03-14T12:43:39;8.30;99.90
8408;DHT22;4241;48.452;9.216;2023-03-14T12:48:56;8.40;99.90
8408;DHT22;4241;48.452;9.216;2023-03-14T12:51:34;8.20;99.90
8408;DHT22;4241;48.452;9.216;2023-03-14T12:54:28;8.10;99.90
8408;DHT22;4241;48.452;9.216;2023-03-14T12:57:09;8.00;99.90
8408;DHT22;4241;48.452;9.216;2023-03-14T12:59:38;8.20;99.90
8408;DHT22;4241;48.452;9.216;2023-03-14T13:02:21;8.20;99.90
8408;DHT22;4241;48.452;9.216;2023-03-14T13:04:53;8.20;99.90
8408;DHT22;4241;48.452;9.216;2023-03-14T13:07:34;8.10;99.90
8408;DHT22;4241;48.452;9.216;2023-03-14T13:10:20;8.20;99.90
8408;DHT22;4241;48.452;9.216;2023-03-14T13:12:50;8.50;99.90
8408;DHT22;4241;48.452;9.216;2023-03-14T13:15:24;8.30;99.90
8408;DHT22;4241;48.452;9.216;2023-03-14T13:17:55;8.20;99.90
8408;DHT22;4241;48.452;9.216;2023-03-14T13:20:28;8.30;99.90
8408;DHT22;4241;48.452;9.216;2023-03-14T13:27:52;7.80;99.90
8408;DHT22;4241;48.452;9.216;2023-03-14T13:30:22;7.70;99.90
8408;DHT22;4241;48.452;9.216;2023-03-14T13:32:51;7.70;99.90
8408;DHT22;4241;48.452;9.216;2023-03-14T13:35:20;7.70;99.90
8408;DHT22;4241;48.452;9.216;2023-03-14T13:37:52;7.70;99.90
8408;DHT22;4241;48.452;9.216;2023-03-14T13:40:24;7.50;99.90
8408;DHT22;4241;48.452;9.216;2023-03-14T13:43:04;7.30;99.90
8408;DHT22;4241;48.452;9.216;2023-03-14T13:45:31;6.70;99.90
8408;DHT22;4241;48.452;9.216;2023-03-14T13:48:09;7.40;99.90
8408;DHT22;4241;48.452;9.216;2023-03-14T13:50:36;7.30;99.90
8408;DHT22;4241;48.452;9.216;2023-03-14T13:53:04;7.30;99.90
8408;DHT22;4241;48.452;9.216;2023-03-14T13:57:58;7.30;99.90
8408;DHT22;4241;48.452;9.216;2023-03-14T14:00:26;7.30;99.90
8408;DHT22;4241;48.452;9.216;2023-03-14T14:02:56;7.20;99.90
8408;DHT22;4241;48.452;9.216;2023-03-14T14:05:26;7.10;99.90
8408;DHT22;4241;48.452;9.216;2023-03-14T14:07:53;7.20;99.90
8408;DHT22;4241;48.452;9.216;2023-03-14T14:10:22;7.00;99.90
8408;DHT22;4241;48.452;9.216;2023-03-14T14:12:52;7.10;99.90
8408;DHT22;4241;48.452;9.216;2023-03-14T14:15:25;7.10;99.90
8408;DHT22;4241;48.452;9.216;2023-03-14T14:17:54;7.30;99.90
8408;DHT22;4241;48.452;9.216;2023-03-14T14:20:27;7.30;99.90
8408;DHT22;4241;48.452;9.216;2023-03-14T14:22:57;7.40;99.90
8408;DHT22;4241;48.452;9.216;2023-03-14T14:25:28;7.30;99.90
8408;DHT22;4241;48.452;9.216;2023-03-14T14:27:55;7.40;99.90
8408;DHT22;4241;48.452;9.216;2023-03-14T14:30:29;7.50;99.90
8408;DHT22;4241;48.452;9.216;2023-03-14T14:33:16;7.40;99.90
8408;DHT22;4241;48.452;9.216;2023-03-14T14:35:51;7.30;99.90
8408;DHT22;4241;48.452;9.216;2023-03-14T14:38:19;7.40;99.90
8408;DHT22;4241;48.452;9.216;2023-03-14T14:40:50;7.30;99.90
8408;DHT22;4241;48.452;9.216;2023-03-14T14:43:21;7.40;99.90
8408;DHT22;4241;48.452;9.216;2023-03-14T14:45:50;7.30;99.90
8408;DHT22;4241;48.452;9.216;2023-03-14T14:48:22;7.30;99.90
8408;DHT22;4241;48.452;9.216;2023-03-14T14:50:54;7.30;99.90
8408;DHT22;4241;48.452;9.216;2023-03-14T14:53:26;7.10;99.90
8408;DHT22;4241;48.452;9.216;2023-03-14T14:55:56;7.20;99.90
8408;DHT22;4241;48.452;9.216;2023-03-14T14:58:25;7.20;99.90
8408;DHT22;4241;48.452;9.216;2023-03-14T15:00:56;7.30;99.90
8408;DHT22;4241;48.452;9.216;2023-03-14T15:03:26;7.90;99.90
8408;DHT22;4241;48.452;9.216;2023-03-14T15:05:54;7.20;99.90
8408;DHT22;4241;48.452;9.216;2023-03-14T15:08:21;7.30;99.90
8408;DHT22;4241;48.452;9.216;2023-03-14T15:10:48;7.40;99.90
8408;DHT22;4241;48.452;9.216;2023-03-14T15:13:16;7.60;99.90
8408;DHT22;4241;48.452;9.216;2023-03-14T15:15:43;7.40;99.90
8408;DHT22;4241;48.452;9.216;2023-03-14T15:18:13;7.40;99.90
8408;DHT22;4241;48.452;9.216;2023-03-14T15:20:41;7.40;99.90
8408;DHT22;4241;48.452;9.216;2023-03-14T15:23:10;8.00;99.90
8408;DHT22;4241;48.452;9.216;2023-03-14T15:25:37;7.40;99.90
8408;DHT22;4241;48.452;9.216;2023-03-14T15:28:10;7.60;99.90
8408;DHT22;4241;48.452;9.216;2023-03-14T15:30:39;7.60;99.90
8408;DHT22;4241;48.452;9.216;2023-03-14T15:40:29;7.70;99.90
8408;DHT22;4241;48.452;9.216;2023-03-14T15:42:56;7.50;99.90
8408;DHT22;4241;48.452;9.216;2023-03-14T15:47:51;7.40;99.90
8408;DHT22;4241;48.452;9.216;2023-03-14T15:55:12;7.30;99.90
8408;DHT22;4241;48.452;9.216;2023-03-14T15:57:40;7.30;99.90
8408;DHT22;4241;48.452;9.216;2023-03-14T16:00:11;7.20;99.90
8408;DHT22;4241;48.452;9.216;2023-03-14T16:05:09;7.20;99.90
8408;DHT22;4241;48.452;9.216;2023-03-14T16:07:36;7.30;99.90
8408;DHT22;4241;48.452;9.216;2023-03-14T16:12:31;7.20;99.90
8408;DHT22;4241;48.452;9.216;2023-03-14T16:14:58;7.30;99.90
8408;DHT22;4241;48.452;9.216;2023-03-14T16:19:52;7.20;99.90
8408;DHT22;4241;48.452;9.216;2023-03-14T16:22:20;7.20;99.90
8408;DHT22;4241;48.452;9.216;2023-03-14T16:24:47;7.20;99.90
8408;DHT22;4241;48.452;9.216;2023-03-14T16:29:41;7.10;99.90
8408;DHT22;4241;48.452;9.216;2023-03-14T16:34:37;7.10;99.90
8408;DHT22;4241;48.452;9.216;2023-03-14T16:39:33;7.20;99.90
8408;DHT22;4241;48.452;9.216;2023-03-14T16:44:27;7.10;99.90
8408;DHT22;4241;48.452;9.216;2023-03-14T16:49:22;7.10;99.90
8408;DHT22;4241;48.452;9.216;2023-03-14T16:54:16;7.00;99.90
8408;DHT22;4241;48.452;9.216;2023-03-14T16:56:44;7.10;99.90
8408;DHT22;4241;48.452;9.216;2023-03-14T16:59:12;7.00;99.90
8408;DHT22;4241;48.452;9.216;2023-03-14T17:01:39;7.20;99.90
8408;DHT22;4241;48.452;9.216;2023-03-14T17:04:07;7.10;99.90
8408;DHT22;4241;48.452;9.216;2023-03-14T17:06:35;7.00;99.90
8408;DHT22;4241;48.452;9.216;2023-03-14T17:09:04;7.10;99.90
8408;DHT22;4241;48.452;9.216;2023-03-14T17:11:31;7.00;99.90
8408;DHT22;4241;48.452;9.216;2023-03-14T17:14:00;7.10;99.90
8408;DHT22;4241;48.452;9.216;2023-03-14T17:16:28;7.10;99.90
8408;DHT22;4241;48.452;9.216;2023-03-14T17:18:55;7.00;99.90
8408;DHT22;4241;48.452;9.216;2023-03-14T17:21:23;7.00;99.90
8408;DHT22;4241;48.452;9.216;2023-03-14T17:23:50;7.00;99.90
8408;DHT22;4241;48.452;9.216;2023-03-14T17:26:17;7.00;99.90
8408;DHT22;4241;48.452;9.216;2023-03-14T17:31:14;6.90;99.90
8408;DHT22;4241;48.452;9.216;2023-03-14T17:33:42;7.10;99.90
8408;DHT22;4241;48.452;9.216;2023-03-14T17:36:09;7.00;99.90
8408;DHT22;4241;48.452;9.216;2023-03-14T17:38:38;7.00;99.90
8408;DHT22;4241;48.452;9.216;2023-03-14T17:41:07;6.80;99.90
8408;DHT22;4241;48.452;9.216;2023-03-14T17:43:34;6.80;99.90
8408;DHT22;4241;48.452;9.216;2023-03-14T17:46:03;6.70;99.90
8408;DHT22;4241;48.452;9.216;2023-03-14T17:48:34;6.40;99.90
8408;DHT22;4241;48.452;9.216;2023-03-14T17:53:28;5.90;99.90
8408;DHT22;4241;48.452;9.216;2023-03-14T17:55:55;5.70;99.90
8408;DHT22;4241;48.452;9.216;2023-03-14T18:03:16;5.30;99.90
8408;DHT22;4241;48.452;9.216;2023-03-14T18:05:45;5.30;99.90
8408;DHT22;4241;48.452;9.216;2023-03-14T18:08:13;5.30;99.90
8408;DHT22;4241;48.452;9.216;2023-03-14T18:10:40;5.30;99.90
8408;DHT22;4241;48.452;9.216;2023-03-14T18:13:07;5.30;99.90
8408;DHT22;4241;48.452;9.216;2023-03-14T18:18:01;5.40;99.90
8408;DHT22;4241;48.452;9.216;2023-03-14T18:22:56;5.50;99.90
8408;DHT22;4241;48.452;9.216;2023-03-14T18:25:25;5.40;99.90
8408;DHT22;4241;48.452;9.216;2023-03-14T18:27:52;5.50;99.90
8408;DHT22;4241;48.452;9.216;2023-03-14T18:30:19;5.20;99.90
8408;DHT22;4241;48.452;9.216;2023-03-14T18:32:45;5.60;99.90
8408;DHT22;4241;48.452;9.216;2023-03-14T18:37:39;5.50;99.90
8408;DHT22;4241;48.452;9.216;2023-03-14T18:40:09;5.30;99.90
8408;DHT22;4241;48.452;9.216;2023-03-14T18:45:07;5.30;99.90
8408;DHT22;4241;48.452;9.216;2023-03-14T18:47:34;5.30;99.90
8408;DHT22;4241;48.452;9.216;2023-03-14T18:52:28;5.30;99.90
8408;DHT22;4241;48.452;9.216;2023-03-14T18:57:24;5.10;99.90
8408;DHT22;4241;48.452;9.216;2023-03-14T18:59:51;5.20;99.90
8408;DHT22;4241;48.452;9.216;2023-03-14T19:02:21;5.00;99.90
8408;DHT22;4241;48.452;9.216;2023-03-14T19:04:48;4.90;99.90
8408;DHT22;4241;48.452;9.216;2023-03-14T19:09:43;4.90;99.90
8408;DHT22;4241;48.452;9.216;2023-03-14T19:14:38;4.80;99.90
8408;DHT22;4241;48.452;9.216;2023-03-14T19:21:59;4.80;99.90
8408;DHT22;4241;48.452;9.216;2023-03-14T19:31:49;4.60;99.90
8408;DHT22;4241;48.452;9.216;2023-03-14T19:34:16;4.70;99.90
8408;DHT22;4241;48.452;9.216;2023-03-14T19:44:04;4.70;99.90
8408;DHT22;4241;48.452;9.216;2023-03-14T19:49:01;4.80;99.90
8408;DHT22;4241;48.452;9.216;2023-03-14T19:56:29;5.10;99.90
8408;DHT22;4241;48.452;9.216;2023-03-14T20:06:19;5.00;99.90
8408;DHT22;4241;48.452;9.216;2023-03-14T20:08:46;4.90;99.90
8408;DHT22;4241;48.452;9.216;2023-03-14T20:11:13;4.80;99.90
8408;DHT22;4241;48.452;9.216;2023-03-14T20:13:40;5.10;99.90
8408;DHT22;4241;48.452;9.216;2023-03-14T20:16:09;5.30;99.90
8408;DHT22;4241;48.452;9.216;2023-03-14T20:18:36;5.10;99.90
8408;DHT22;4241;48.452;9.216;2023-03-14T20:21:05;4.90;99.90
8408;DHT22;4241;48.452;9.216;2023-03-14T20:23:33;4.90;99.90
8408;DHT22;4241;48.452;9.216;2023-03-14T20:30:55;4.80;99.90
8408;DHT22;4241;48.452;9.216;2023-03-14T20:33:23;5.00;99.90
8408;DHT22;4241;48.452;9.216;2023-03-14T20:35:53;4.90;99.90
8408;DHT22;4241;48.452;9.216;2023-03-14T20:40:49;5.20;99.90
8408;DHT22;4241;48.452;9.216;2023-03-14T20:43:16;5.80;99.90
8408;DHT22;4241;48.452;9.216;2023-03-14T20:45:43;6.00;99.90
8408;DHT22;4241;48.452;9.216;2023-03-14T20:55:32;5.10;99.90
8408;DHT22;4241;48.452;9.216;2023-03-14T20:58:00;5.10;99.90
8408;DHT22;4241;48.452;9.216;2023-03-14T21:02:55;5.20;99.90
8408;DHT22;4241;48.452;9.216;2023-03-14T21:05:22;5.30;99.90
8408;DHT22;4241;48.452;9.216;2023-03-14T21:07:49;5.20;99.90
8408;DHT22;4241;48.452;9.216;2023-03-14T21:12:46;4.90;99.90